Time;durP1;ratioP1;P1;durP2;ratioP2;P2;SDS_P1;SDS_P2;PMS_P1;PMS_P2;Temp;Humidity;BMP_temperature;BMP_pressure;BME280_temperature;BME280_humidity;BME280_pressure;Samples;Min_cycle;Max_cycle;Signal;HPM_P1;HPM_P2
2022/06/06 00:00:12;;;;;;;;;;;15.50;99.90;;;;;;5082775;28;19943;-66
2022/06/06 00:02:39;;;;;;;;;;;15.50;99.90;;;;;;5082881;28;19920;-66
2022/06/06 00:05:07;;;;;;;;;;;15.50;99.90;;;;;;5082757;28;20178;-66
2022/06/06 00:07:33;;;;;;;;;;;15.50;99.90;;;;;;5082473;28;19928;-66
2022/06/06 00:10:00;;;;;;;;;;;15.50;99.90;;;;;;5082716;28;19992;-66
2022/06/06 00:12:27;;;;;;;;;;;15.60;99.90;;;;;;5082642;28;19920;-66
2022/06/06 00:14:54;;;;;;;;;;;15.50;99.90;;;;;;5082363;28;19974;-66
2022/06/06 00:17:22;;;;;;;;;;;15.50;99.90;;;;;;5082478;28;19928;-66
2022/06/06 00:19:48;;;;;;;;;;;15.50;99.90;;;;;;5082949;28;19956;-66
2022/06/06 00:22:15;;;;;;;;;;;15.50;99.90;;;;;;5084357;28;19920;-66
2022/06/06 00:24:42;;;;;;;;;;;15.50;99.90;;;;;;5086007;28;19987;-66
2022/06/06 00:27:09;;;;;;;;;;;15.50;99.90;;;;;;5085717;28;19975;-65
2022/06/06 00:29:35;;;;;;;;;;;15.40;99.90;;;;;;5085386;28;20275;-66
2022/06/06 00:34:51;;;;;;;;;;;15.40;99.90;;;;;;5086101;28;19923;-66
2022/06/06 00:37:20;;;;;;;;;;;15.50;99.90;;;;;;5085694;28;20093;-66
2022/06/06 00:39:47;;;;;;;;;;;15.50;99.90;;;;;;5085611;28;19920;-66
2022/06/06 00:42:15;;;;;;;;;;;15.40;99.90;;;;;;5085975;28;19959;-66
2022/06/06 00:44:42;;;;;;;;;;;15.40;99.90;;;;;;5085582;28;19966;-66
2022/06/06 00:47:14;;;;;;;;;;;15.40;99.90;;;;;;5085396;28;19920;-65
2022/06/06 00:49:42;;;;;;;;;;;15.50;99.90;;;;;;5085099;28;19920;-67
2022/06/06 00:52:12;;;;;;;;;;;15.40;99.90;;;;;;5085682;28;19952;-66
2022/06/06 00:54:39;;;;;;;;;;;15.40;99.90;;;;;;5085419;28;19952;-65
2022/06/06 00:57:08;;;;;;;;;;;15.40;99.90;;;;;;5085505;28;19952;-66
2022/06/06 00:59:37;;;;;;;;;;;15.50;99.90;;;;;;5085569;28;19921;-66
2022/06/06 01:02:05;;;;;;;;;;;15.40;99.90;;;;;;5085450;28;19920;-66
2022/06/06 01:04:32;;;;;;;;;;;15.40;99.90;;;;;;5085196;28;20230;-66
2022/06/06 01:06:59;;;;;;;;;;;15.40;99.90;;;;;;5085450;28;19952;-66
2022/06/06 01:09:27;;;;;;;;;;;15.40;99.90;;;;;;5085531;28;19966;-66
2022/06/06 01:11:59;;;;;;;;;;;15.40;99.90;;;;;;5085228;28;19924;-66
2022/06/06 01:14:28;;;;;;;;;;;15.40;99.90;;;;;;5085447;28;20115;-66
2022/06/06 01:17:00;;;;;;;;;;;15.40;99.90;;;;;;5085381;28;19950;-66
2022/06/06 01:19:42;;;;;;;;;;;15.40;99.90;;;;;;5085096;28;19921;-66
2022/06/06 01:22:24;;;;;;;;;;;15.40;99.90;;;;;;5085229;28;19952;-66
2022/06/06 01:25:03;;;;;;;;;;;15.40;99.90;;;;;;5084938;28;19987;-66
2022/06/06 01:27:35;;;;;;;;;;;15.50;99.90;;;;;;5084809;28;20004;-66
2022/06/06 01:30:05;;;;;;;;;;;15.50;99.90;;;;;;5084331;28;19971;-66
2022/06/06 01:32:35;;;;;;;;;;;15.50;99.90;;;;;;5084611;28;19948;-66
2022/06/06 01:35:02;;;;;;;;;;;15.50;99.90;;;;;;5084097;28;19943;-66
2022/06/06 01:37:30;;;;;;;;;;;15.50;99.90;;;;;;5084669;28;20093;-66
2022/06/06 01:39:58;;;;;;;;;;;15.50;99.90;;;;;;5084666;28;19928;-66
2022/06/06 01:42:28;;;;;;;;;;;15.50;99.90;;;;;;5084634;28;20349;-66
2022/06/06 01:44:57;;;;;;;;;;;15.50;99.90;;;;;;5098312;22;20214;-70
2022/06/06 01:47:27;;;;;;;;;;;15.50;99.90;;;;;;5084386;28;19920;-70
2022/06/06 01:49:55;;;;;;;;;;;15.40;99.90;;;;;;5084594;28;19983;-69
2022/06/06 01:52:22;;;;;;;;;;;15.40;99.90;;;;;;5084580;28;19928;-70
2022/06/06 01:54:53;;;;;;;;;;;15.40;99.90;;;;;;5084277;28;19955;-70
2022/06/06 01:57:20;;;;;;;;;;;15.40;99.90;;;;;;5084379;28;19962;-70
2022/06/06 01:59:46;;;;;;;;;;;15.40;99.90;;;;;;5083404;28;19920;-70
2022/06/06 02:02:13;;;;;;;;;;;15.40;99.90;;;;;;5084405;28;19963;-70
2022/06/06 02:04:41;;;;;;;;;;;15.40;99.90;;;;;;5084106;28;19991;-68
2022/06/06 02:07:08;;;;;;;;;;;15.40;99.90;;;;;;5084002;28;19987;-70
2022/06/06 02:09:34;;;;;;;;;;;15.40;99.90;;;;;;5083205;28;19935;-70
2022/06/06 02:12:01;;;;;;;;;;;15.30;99.90;;;;;;5084304;28;19967;-70
2022/06/06 02:14:28;;;;;;;;;;;15.30;99.90;;;;;;5084080;28;19983;-70
2022/06/06 02:16:54;;;;;;;;;;;15.20;99.90;;;;;;5083942;28;19956;-69
2022/06/06 02:19:21;;;;;;;;;;;15.20;99.90;;;;;;5084071;28;19962;-70
2022/06/06 02:21:49;;;;;;;;;;;15.20;99.90;;;;;;5084211;28;19961;-70
2022/06/06 02:24:16;;;;;;;;;;;15.20;99.90;;;;;;5083692;28;19963;-70
2022/06/06 02:26:43;;;;;;;;;;;15.10;99.90;;;;;;5083511;28;19963;-70
2022/06/06 02:29:09;;;;;;;;;;;15.10;99.90;;;;;;5083228;28;19920;-70
2022/06/06 02:31:38;;;;;;;;;;;15.10;99.90;;;;;;5083844;28;20051;-70
2022/06/06 02:34:05;;;;;;;;;;;15.00;99.90;;;;;;5084228;28;19924;-70
2022/06/06 02:36:31;;;;;;;;;;;15.00;99.90;;;;;;5083431;28;19927;-70
2022/06/06 02:38:59;;;;;;;;;;;15.00;99.90;;;;;;5083861;28;19963;-70
2022/06/06 02:41:28;;;;;;;;;;;15.00;99.90;;;;;;5083752;28;19958;-70
2022/06/06 02:43:56;;;;;;;;;;;15.00;99.90;;;;;;5083268;28;19921;-69
2022/06/06 02:46:23;;;;;;;;;;;14.90;99.90;;;;;;5083028;28;19926;-70
2022/06/06 02:48:49;;;;;;;;;;;14.80;99.90;;;;;;5083905;28;19931;-70
2022/06/06 02:51:16;;;;;;;;;;;14.80;99.90;;;;;;5083565;28;20223;-70
2022/06/06 02:53:43;;;;;;;;;;;14.80;99.90;;;;;;5083717;28;19974;-70
2022/06/06 02:56:11;;;;;;;;;;;14.80;99.90;;;;;;5083250;28;19943;-69
2022/06/06 02:58:37;;;;;;;;;;;14.80;99.90;;;;;;5083446;28;19979;-69
2022/06/06 03:01:05;;;;;;;;;;;14.80;99.90;;;;;;5083391;28;19944;-70
2022/06/06 03:03:32;;;;;;;;;;;14.80;99.90;;;;;;5083259;28;19920;-70
2022/06/06 03:06:03;;;;;;;;;;;14.80;99.90;;;;;;5083101;28;19955;-69
2022/06/06 03:08:42;;;;;;;;;;;14.80;99.90;;;;;;5082658;28;19928;-70
2022/06/06 03:11:19;;;;;;;;;;;14.70;99.90;;;;;;5083408;28;19952;-70
2022/06/06 03:13:55;;;;;;;;;;;14.80;99.90;;;;;;5083320;28;19963;-70
2022/06/06 03:22:11;;;;;;;;;;;14.80;99.90;;;;;;5083228;28;19998;-70
2022/06/06 03:24:41;;;;;;;;;;;14.80;99.90;;;;;;5082989;28;19964;-69
2022/06/06 03:27:15;;;;;;;;;;;14.80;99.90;;;;;;5082692;28;19955;-69
2022/06/06 03:29:49;;;;;;;;;;;14.80;99.90;;;;;;5082411;28;19928;-70
2022/06/06 03:32:19;;;;;;;;;;;14.70;99.90;;;;;;5083283;28;19921;-70
2022/06/06 03:34:51;;;;;;;;;;;14.70;99.90;;;;;;5082904;28;19952;-70
2022/06/06 03:37:23;;;;;;;;;;;14.60;99.90;;;;;;5082960;28;19924;-70
2022/06/06 03:39:53;;;;;;;;;;;14.60;99.90;;;;;;5083141;28;19920;-70
2022/06/06 03:42:25;;;;;;;;;;;14.60;99.90;;;;;;5083178;28;19921;-70
2022/06/06 03:44:56;;;;;;;;;;;14.50;99.90;;;;;;5082726;28;19979;-70
2022/06/06 03:47:26;;;;;;;;;;;14.50;99.90;;;;;;5082626;28;19963;-70
2022/06/06 03:49:57;;;;;;;;;;;14.50;99.90;;;;;;5083120;28;19965;-69
2022/06/06 03:52:27;;;;;;;;;;;14.40;99.90;;;;;;5083009;28;19920;-69
2022/06/06 03:54:59;;;;;;;;;;;14.30;99.90;;;;;;5082913;28;19983;-69
2022/06/06 03:57:28;;;;;;;;;;;14.40;99.90;;;;;;5084713;28;19960;-69
2022/06/06 03:59:55;;;;;;;;;;;14.40;99.90;;;;;;5086506;28;19963;-69
2022/06/06 04:02:24;;;;;;;;;;;14.40;99.90;;;;;;5086559;28;19921;-70
2022/06/06 04:04:51;;;;;;;;;;;14.40;99.90;;;;;;5086331;28;19962;-69
2022/06/06 04:07:18;;;;;;;;;;;14.50;99.90;;;;;;5086249;28;19955;-70
2022/06/06 04:09:45;;;;;;;;;;;14.50;99.90;;;;;;5086364;28;19956;-70
2022/06/06 04:12:23;;;;;;;;;;;14.50;99.90;;;;;;5086379;28;19920;-69
2022/06/06 04:14:58;;;;;;;;;;;14.60;99.90;;;;;;5086508;28;19952;-69
2022/06/06 04:17:36;;;;;;;;;;;14.60;99.90;;;;;;5086130;28;19928;-70
2022/06/06 04:20:11;;;;;;;;;;;14.70;99.90;;;;;;5086323;28;19927;-70
2022/06/06 04:22:43;;;;;;;;;;;14.70;99.90;;;;;;5086318;28;19984;-70
2022/06/06 04:25:14;;;;;;;;;;;14.70;99.90;;;;;;5086137;28;19928;-70
2022/06/06 04:27:44;;;;;;;;;;;14.80;99.90;;;;;;5086170;28;20208;-70
2022/06/06 04:30:14;;;;;;;;;;;14.80;99.90;;;;;;5085519;28;19944;-70
2022/06/06 04:32:46;;;;;;;;;;;14.90;99.90;;;;;;5086575;28;19963;-70
2022/06/06 04:35:19;;;;;;;;;;;14.90;99.90;;;;;;5085557;28;19921;-70
2022/06/06 04:37:49;;;;;;;;;;;14.90;99.90;;;;;;5086009;28;19967;-69
2022/06/06 04:40:19;;;;;;;;;;;14.90;99.90;;;;;;5085715;28;19952;-70
2022/06/06 04:42:49;;;;;;;;;;;15.00;99.90;;;;;;5086003;28;19987;-69
2022/06/06 04:45:23;;;;;;;;;;;15.00;99.90;;;;;;5084533;28;20810;-70
2022/06/06 04:47:50;;;;;;;;;;;15.00;99.90;;;;;;5085612;28;19921;-70
2022/06/06 04:50:17;;;;;;;;;;;15.00;99.90;;;;;;5086058;28;20171;-69
2022/06/06 04:52:47;;;;;;;;;;;15.10;99.90;;;;;;5085824;28;19947;-70
2022/06/06 04:55:15;;;;;;;;;;;15.20;99.90;;;;;;5085325;28;19958;-69
2022/06/06 04:57:44;;;;;;;;;;;15.20;99.90;;;;;;5085597;28;19991;-69
2022/06/06 05:00:11;;;;;;;;;;;15.30;99.90;;;;;;5085359;28;20115;-70
2022/06/06 05:02:39;;;;;;;;;;;15.30;99.90;;;;;;5085726;28;20227;-70
2022/06/06 05:05:07;;;;;;;;;;;15.40;99.90;;;;;;5085426;28;20062;-70
2022/06/06 05:08:01;;;;;;;;;;;15.40;99.90;;;;;;5085102;28;19958;-69
2022/06/06 05:10:37;;;;;;;;;;;15.40;99.90;;;;;;5038680;28;19920;-70
2022/06/06 05:13:21;;;;;;;;;;;15.50;99.90;;;;;;5085561;28;20146;-69
2022/06/06 05:15:55;;;;;;;;;;;15.50;99.90;;;;;;5084599;28;19928;-70
2022/06/06 05:18:43;;;;;;;;;;;15.50;99.90;;;;;;5085240;28;19921;-70
2022/06/06 05:21:26;;;;;;;;;;;15.60;99.90;;;;;;5078217;28;19952;-70
2022/06/06 05:24:04;;;;;;;;;;;15.60;99.90;;;;;;5085260;28;19928;-70
2022/06/06 05:26:38;;;;;;;;;;;15.60;99.90;;;;;;5084786;28;19924;-70
2022/06/06 05:29:13;;;;;;;;;;;15.60;99.90;;;;;;5084234;28;20231;-70
2022/06/06 05:31:47;;;;;;;;;;;15.60;99.90;;;;;;5084994;28;19983;-69
2022/06/06 05:34:15;;;;;;;;;;;15.50;99.90;;;;;;5085064;28;19963;-70
2022/06/06 05:37:00;;;;;;;;;;;15.60;99.90;;;;;;5084515;28;20238;-70
2022/06/06 05:39:37;;;;;;;;;;;15.60;99.90;;;;;;5084789;28;20231;-70
2022/06/06 05:42:09;;;;;;;;;;;15.70;99.90;;;;;;5084684;28;20231;-69
2022/06/06 05:44:42;;;;;;;;;;;15.70;99.90;;;;;;5084645;28;20156;-70
2022/06/06 05:47:16;;;;;;;;;;;15.70;99.90;;;;;;5084369;28;20223;-70
2022/06/06 05:49:52;;;;;;;;;;;15.70;99.90;;;;;;5084621;28;20128;-70
2022/06/06 05:52:30;;;;;;;;;;;15.70;99.90;;;;;;5084493;28;19987;-70
2022/06/06 05:55:06;;;;;;;;;;;15.80;99.90;;;;;;5084498;28;19963;-69
2022/06/06 05:57:40;;;;;;;;;;;15.90;99.90;;;;;;5084216;28;19943;-70
2022/06/06 06:00:16;;;;;;;;;;;15.90;99.90;;;;;;5084481;28;20171;-70
2022/06/06 06:02:58;;;;;;;;;;;15.90;99.90;;;;;;5084473;28;19955;-69
2022/06/06 06:05:30;;;;;;;;;;;16.00;99.90;;;;;;5071034;28;19963;-69
2022/06/06 06:08:06;;;;;;;;;;;16.00;99.90;;;;;;5084175;28;19988;-70
2022/06/06 06:10:37;;;;;;;;;;;16.10;99.90;;;;;;5084116;28;20266;-69
2022/06/06 06:13:15;;;;;;;;;;;16.10;99.90;;;;;;5084100;28;19971;-70
2022/06/06 06:15:43;;;;;;;;;;;16.20;99.90;;;;;;5083901;28;19920;-70
2022/06/06 06:18:11;;;;;;;;;;;16.30;99.90;;;;;;5084099;28;19966;-69
2022/06/06 06:20:39;;;;;;;;;;;16.30;99.90;;;;;;5083457;28;19920;-70
2022/06/06 06:23:09;;;;;;;;;;;16.40;99.90;;;;;;5084022;28;19955;-70
2022/06/06 06:25:36;;;;;;;;;;;16.40;99.90;;;;;;5083334;28;19935;-70
2022/06/06 06:28:05;;;;;;;;;;;16.50;99.90;;;;;;5083760;28;20204;-70
2022/06/06 06:30:35;;;;;;;;;;;16.60;99.90;;;;;;5083183;28;19959;-70
2022/06/06 06:33:09;;;;;;;;;;;16.70;99.90;;;;;;5083967;28;19920;-70
2022/06/06 06:35:40;;;;;;;;;;;16.70;99.90;;;;;;5083327;28;19927;-69
2022/06/06 06:38:18;;;;;;;;;;;16.70;99.90;;;;;;5083533;28;19952;-69
2022/06/06 06:40:49;;;;;;;;;;;16.80;99.90;;;;;;5083786;28;19952;-70
2022/06/06 06:43:21;;;;;;;;;;;16.80;99.90;;;;;;5083742;28;19920;-69
2022/06/06 06:45:51;;;;;;;;;;;16.80;99.90;;;;;;5083030;28;20192;-70
2022/06/06 06:48:22;;;;;;;;;;;16.90;99.90;;;;;;5083605;28;19927;-70
2022/06/06 06:50:53;;;;;;;;;;;16.90;99.90;;;;;;5083697;28;19974;-70
2022/06/06 06:53:26;;;;;;;;;;;17.00;99.90;;;;;;5083914;28;20127;-70
2022/06/06 06:55:55;;;;;;;;;;;17.00;99.90;;;;;;5083348;28;19952;-70
2022/06/06 06:58:31;;;;;;;;;;;17.00;99.90;;;;;;5083624;28;19920;-70
2022/06/06 07:01:00;;;;;;;;;;;17.10;99.90;;;;;;5083351;28;20258;-70
2022/06/06 07:09:26;;;;;;;;;;;17.20;99.90;;;;;;5083263;28;19923;-70
2022/06/06 07:12:02;;;;;;;;;;;17.40;99.90;;;;;;5083250;28;19987;-70
2022/06/06 07:14:35;;;;;;;;;;;17.50;99.90;;;;;;5083439;28;19920;-70
2022/06/06 07:17:03;;;;;;;;;;;17.60;99.90;;;;;;5082934;28;19987;-70
2022/06/06 07:19:32;;;;;;;;;;;17.70;99.90;;;;;;5083358;28;19928;-69
2022/06/06 07:22:02;;;;;;;;;;;17.90;99.90;;;;;;5083175;28;19928;-70
2022/06/06 07:24:30;;;;;;;;;;;18.00;99.90;;;;;;5083244;28;19921;-70
2022/06/06 07:26:58;;;;;;;;;;;18.10;99.90;;;;;;5082891;28;20179;-70
2022/06/06 07:29:25;;;;;;;;;;;18.10;99.90;;;;;;5082437;28;19927;-69
2022/06/06 07:32:07;;;;;;;;;;;18.20;99.90;;;;;;5086078;28;20155;-70
2022/06/06 07:34:51;;;;;;;;;;;18.30;99.90;;;;;;5087009;28;19984;-69
2022/06/06 07:37:26;;;;;;;;;;;18.40;99.90;;;;;;5086776;28;20144;-70
2022/06/06 07:40:01;;;;;;;;;;;18.50;99.90;;;;;;5087165;28;20279;-70
2022/06/06 07:42:40;;;;;;;;;;;18.50;99.90;;;;;;5087049;28;19963;-69
2022/06/06 07:45:10;;;;;;;;;;;18.50;99.90;;;;;;5087067;28;19921;-69
2022/06/06 07:47:45;;;;;;;;;;;18.50;99.90;;;;;;5087060;28;19951;-68
2022/06/06 07:50:13;;;;;;;;;;;18.60;99.90;;;;;;5086941;28;19927;-69
2022/06/06 07:52:43;;;;;;;;;;;18.60;99.90;;;;;;5087011;28;20127;-69
2022/06/06 07:55:14;;;;;;;;;;;18.70;99.90;;;;;;5086434;28;19992;-70
2022/06/06 07:57:43;;;;;;;;;;;18.80;99.90;;;;;;5086696;28;19958;-70
2022/06/06 08:00:12;;;;;;;;;;;18.90;99.90;;;;;;5086906;28;19947;-69
2022/06/06 08:02:44;;;;;;;;;;;19.10;99.90;;;;;;5086740;28;19921;-69
2022/06/06 08:05:16;;;;;;;;;;;19.20;99.90;;;;;;5086313;28;19920;-71
2022/06/06 08:07:48;;;;;;;;;;;19.40;99.90;;;;;;5085334;28;19955;-68
2022/06/06 08:10:24;;;;;;;;;;;19.50;99.90;;;;;;5086752;28;19920;-69
2022/06/06 08:13:06;;;;;;;;;;;19.50;99.90;;;;;;5086420;28;19920;-69
2022/06/06 08:15:38;;;;;;;;;;;19.50;99.90;;;;;;5086006;28;19959;-68
2022/06/06 08:18:22;;;;;;;;;;;19.50;99.90;;;;;;5086280;28;19921;-69
2022/06/06 08:20:51;;;;;;;;;;;19.40;99.90;;;;;;5086303;28;19921;-69
2022/06/06 08:23:18;;;;;;;;;;;19.40;99.90;;;;;;5086208;28;19921;-69
2022/06/06 08:25:48;;;;;;;;;;;19.40;99.90;;;;;;5085870;28;20164;-69
2022/06/06 08:28:15;;;;;;;;;;;19.40;99.90;;;;;;5085742;28;19979;-71
2022/06/06 08:30:43;;;;;;;;;;;19.30;99.90;;;;;;5085766;28;19920;-68
2022/06/06 08:33:09;;;;;;;;;;;19.30;99.90;;;;;;5086257;28;19928;-69
2022/06/06 08:35:40;;;;;;;;;;;19.30;99.90;;;;;;5085458;28;20179;-69
2022/06/06 08:38:16;;;;;;;;;;;19.20;99.90;;;;;;5086340;28;19921;-69
2022/06/06 08:40:55;;;;;;;;;;;19.20;99.90;;;;;;5086063;28;19920;-69
2022/06/06 08:43:28;;;;;;;;;;;19.20;99.90;;;;;;5085227;28;19956;-69
2022/06/06 08:46:02;;;;;;;;;;;19.20;99.90;;;;;;5083254;28;19951;-69
2022/06/06 08:48:39;;;;;;;;;;;19.20;99.90;;;;;;5084061;28;19921;-69
2022/06/06 08:51:17;;;;;;;;;;;19.20;99.90;;;;;;5085715;28;19920;-68
2022/06/06 08:54:05;;;;;;;;;;;19.20;99.90;;;;;;5085612;28;19955;-68
2022/06/06 08:56:40;;;;;;;;;;;19.20;99.90;;;;;;5085213;28;19920;-68
2022/06/06 08:59:33;;;;;;;;;;;19.20;99.90;;;;;;5085651;28;20007;-67
2022/06/06 09:02:10;;;;;;;;;;;19.30;99.90;;;;;;5084915;28;19920;-67
2022/06/06 09:04:47;;;;;;;;;;;19.30;99.90;;;;;;5085304;28;19959;-69
2022/06/06 09:07:39;;;;;;;;;;;19.30;99.90;;;;;;5085062;28;19991;-67
2022/06/06 09:10:20;;;;;;;;;;;19.40;99.90;;;;;;5084463;28;19966;-68
2022/06/06 09:13:02;;;;;;;;;;;19.40;99.90;;;;;;5085636;28;19921;-68
2022/06/06 09:15:46;;;;;;;;;;;19.40;99.90;;;;;;5085005;28;20150;-68
2022/06/06 09:18:31;;;;;;;;;;;19.40;99.90;;;;;;5085157;28;20145;-67
2022/06/06 09:21:16;;;;;;;;;;;19.50;99.90;;;;;;5084326;28;19921;-69
2022/06/06 09:24:01;;;;;;;;;;;19.50;99.90;;;;;;5085227;28;19954;-68
2022/06/06 09:26:33;;;;;;;;;;;19.70;99.90;;;;;;5084511;28;19920;-68
2022/06/06 09:29:20;;;;;;;;;;;19.80;99.90;;;;;;5083773;28;20160;-68
2022/06/06 09:32:07;;;;;;;;;;;19.90;99.90;;;;;;5085298;28;19983;-68
2022/06/06 09:35:07;;;;;;;;;;;20.10;99.90;;;;;;5084605;28;19952;-69
2022/06/06 09:37:37;;;;;;;;;;;20.20;99.90;;;;;;5084650;28;19920;-70
2022/06/06 09:40:16;;;;;;;;;;;20.40;99.90;;;;;;5085020;28;19920;-68
2022/06/06 09:42:51;;;;;;;;;;;20.50;99.90;;;;;;5084828;28;19920;-68
2022/06/06 09:45:30;;;;;;;;;;;20.50;99.90;;;;;;5084343;28;19928;-68
2022/06/06 09:48:15;;;;;;;;;;;20.60;99.90;;;;;;5084561;28;19928;-68
2022/06/06 09:50:52;;;;;;;;;;;20.50;99.90;;;;;;5084340;28;19967;-67
2022/06/06 09:53:42;;;;;;;;;;;20.50;99.90;;;;;;5084508;28;19921;-68
2022/06/06 09:59:39;;;;;;;;;;;20.50;99.90;;;;;;5074195;28;19923;-68
2022/06/06 10:02:23;;;;;;;;;;;20.60;99.90;;;;;;5083130;28;19920;-68
2022/06/06 10:05:14;;;;;;;;;;;20.60;99.90;;;;;;5084405;28;19927;-68
2022/06/06 10:07:56;;;;;;;;;;;20.70;99.90;;;;;;5084313;28;19920;-69
2022/06/06 10:10:37;;;;;;;;;;;21.00;99.90;;;;;;5084114;28;19972;-67
2022/06/06 10:13:09;;;;;;;;;;;21.10;99.90;;;;;;5080103;28;19927;-68
2022/06/06 10:15:44;;;;;;;;;;;21.20;99.90;;;;;;5083602;28;19927;-68
2022/06/06 10:18:24;;;;;;;;;;;21.20;99.90;;;;;;5084027;28;19920;-68
2022/06/06 10:21:01;;;;;;;;;;;21.30;99.90;;;;;;5083981;28;19956;-68
2022/06/06 10:23:33;;;;;;;;;;;21.50;99.90;;;;;;5084175;28;19920;-70
2022/06/06 10:26:14;;;;;;;;;;;21.60;99.90;;;;;;5083722;28;19926;-71
2022/06/06 10:28:56;;;;;;;;;;;21.70;99.90;;;;;;5082653;28;20250;-69
2022/06/06 10:31:34;;;;;;;;;;;21.90;99.90;;;;;;5083605;28;19927;-67
2022/06/06 10:34:12;;;;;;;;;;;22.20;99.90;;;;;;5083928;28;19950;-70
2022/06/06 10:36:51;;;;;;;;;;;22.30;99.90;;;;;;5083343;28;19921;-70
2022/06/06 10:39:32;;;;;;;;;;;22.40;99.90;;;;;;5083250;28;20177;-71
2022/06/06 10:42:12;;;;;;;;;;;22.70;99.90;;;;;;5066524;28;19983;-70
2022/06/06 10:44:57;;;;;;;;;;;22.70;99.90;;;;;;5083535;28;19920;-67
2022/06/06 10:47:32;;;;;;;;;;;22.50;99.90;;;;;;5072949;28;19966;-68
2022/06/06 10:50:02;;;;;;;;;;;22.40;99.90;;;;;;5083537;28;19928;-68
2022/06/06 10:52:48;;;;;;;;;;;22.30;99.90;;;;;;5083352;28;19952;-68
2022/06/06 10:55:30;;;;;;;;;;;22.00;99.90;;;;;;5083139;28;19956;-69
2022/06/06 10:58:14;;;;;;;;;;;21.90;99.90;;;;;;5083350;28;19928;-69
2022/06/06 11:00:56;;;;;;;;;;;21.90;99.90;;;;;;5084110;28;20101;-68
2022/06/06 11:03:40;;;;;;;;;;;22.10;99.90;;;;;;5083553;28;20262;-69
2022/06/06 11:06:32;;;;;;;;;;;22.30;99.90;;;;;;5082556;28;19959;-69
2022/06/06 11:09:19;;;;;;;;;;;22.60;99.90;;;;;;5083172;28;19920;-68
2022/06/06 11:12:00;;;;;;;;;;;22.90;99.90;;;;;;5082950;28;19963;-68
2022/06/06 11:14:29;;;;;;;;;;;22.80;99.90;;;;;;5083194;28;19921;-69
2022/06/06 11:17:21;;;;;;;;;;;22.80;99.90;;;;;;5082819;28;19964;-68
2022/06/06 11:20:07;;;;;;;;;;;22.70;99.90;;;;;;5083101;28;19955;-68
2022/06/06 11:22:36;;;;;;;;;;;22.60;99.90;;;;;;5082235;28;19956;-69
2022/06/06 11:25:07;;;;;;;;;;;22.50;99.90;;;;;;5083085;28;19921;-69
2022/06/06 11:27:51;;;;;;;;;;;22.50;99.90;;;;;;5082581;28;19960;-68
2022/06/06 11:30:26;;;;;;;;;;;22.60;99.90;;;;;;5082558;28;19962;-68
2022/06/06 11:33:05;;;;;;;;;;;22.70;99.90;;;;;;5081975;28;19920;-69
2022/06/06 11:35:40;;;;;;;;;;;22.80;99.90;;;;;;5082677;28;19952;-68
2022/06/06 11:38:24;;;;;;;;;;;22.90;99.90;;;;;;5082826;28;19928;-68
2022/06/06 11:41:07;;;;;;;;;;;22.90;99.90;;;;;;5082886;28;19967;-69
2022/06/06 11:44:04;;;;;;;;;;;22.90;99.90;;;;;;5082920;28;19921;-68
2022/06/06 11:46:49;;;;;;;;;;;22.70;99.90;;;;;;5082490;28;19964;-69
2022/06/06 11:49:28;;;;;;;;;;;22.70;99.90;;;;;;5082965;28;19955;-70
2022/06/06 11:52:11;;;;;;;;;;;23.00;99.90;;;;;;5082947;28;19956;-68
2022/06/06 11:54:51;;;;;;;;;;;23.30;99.90;;;;;;5082423;28;19983;-69
2022/06/06 11:57:50;;;;;;;;;;;23.50;99.90;;;;;;5082458;28;19927;-69
2022/06/06 12:00:21;;;;;;;;;;;23.70;99.90;;;;;;5083116;28;19921;-69
2022/06/06 12:03:06;;;;;;;;;;;23.80;99.90;;;;;;5082788;28;19962;-69
2022/06/06 12:05:50;;;;;;;;;;;23.80;99.90;;;;;;5082590;28;19920;-68
2022/06/06 12:08:25;;;;;;;;;;;23.60;99.90;;;;;;5051937;28;19956;-69
2022/06/06 12:11:16;;;;;;;;;;;23.40;99.90;;;;;;5082768;28;19974;-70
2022/06/06 12:13:54;;;;;;;;;;;23.30;99.90;;;;;;5082592;28;19960;-69
2022/06/06 12:16:25;;;;;;;;;;;23.10;99.90;;;;;;5082616;28;19928;-69
2022/06/06 12:19:10;;;;;;;;;;;23.00;99.90;;;;;;5085396;28;19924;-68
2022/06/06 12:21:44;;;;;;;;;;;22.90;99.90;;;;;;5086268;28;19942;-69
2022/06/06 12:24:21;;;;;;;;;;;22.70;99.90;;;;;;5086056;28;20171;-68
2022/06/06 12:27:10;;;;;;;;;;;22.40;99.90;;;;;;5085941;28;19956;-71
2022/06/06 12:29:49;;;;;;;;;;;22.30;99.90;;;;;;5085525;28;19995;-68
2022/06/06 12:32:24;;;;;;;;;;;22.10;99.90;;;;;;5085544;28;20004;-70
2022/06/06 12:34:54;;;;;;;;;;;22.20;99.90;;;;;;5085689;28;19967;-68
2022/06/06 12:37:24;;;;;;;;;;;22.40;99.90;;;;;;5085865;28;19956;-70
2022/06/06 12:39:58;;;;;;;;;;;22.60;99.90;;;;;;5085825;28;20235;-70
2022/06/06 12:42:30;;;;;;;;;;;23.10;99.90;;;;;;5085999;28;20109;-67
2022/06/06 12:45:15;;;;;;;;;;;23.50;99.90;;;;;;5085306;28;20293;-69
2022/06/06 12:47:49;;;;;;;;;;;24.00;99.90;;;;;;5084395;28;19921;-69
2022/06/06 12:50:23;;;;;;;;;;;24.30;99.90;;;;;;5084791;28;20124;-69
2022/06/06 12:52:59;;;;;;;;;;;24.00;99.90;;;;;;5085895;28;20236;-69
2022/06/06 12:55:33;;;;;;;;;;;23.70;99.90;;;;;;5084019;28;19991;-70
2022/06/06 12:58:07;;;;;;;;;;;23.50;99.90;;;;;;5085844;28;19974;-68
2022/06/06 13:03:26;;;;;;;;;;;22.90;99.90;;;;;;5086161;28;19963;-69
2022/06/06 13:05:58;;;;;;;;;;;22.60;99.90;;;;;;5085370;28;19959;-68
2022/06/06 13:08:40;;;;;;;;;;;22.50;99.90;;;;;;5085393;28;19970;-71
2022/06/06 13:11:13;;;;;;;;;;;22.40;99.90;;;;;;5080515;28;19936;-68
2022/06/06 13:13:58;;;;;;;;;;;22.50;99.90;;;;;;5085087;28;19959;-69
2022/06/06 13:16:31;;;;;;;;;;;22.90;99.90;;;;;;5074601;28;19927;-69
2022/06/06 13:19:05;;;;;;;;;;;23.50;99.90;;;;;;5085393;28;19927;-68
2022/06/06 13:21:42;;;;;;;;;;;23.70;99.90;;;;;;5085234;28;20081;-71
2022/06/06 13:24:19;;;;;;;;;;;23.70;99.90;;;;;;5084182;28;19928;-68
2022/06/06 13:26:48;;;;;;;;;;;23.60;99.90;;;;;;5085266;28;19972;-68
2022/06/06 13:29:28;;;;;;;;;;;23.50;99.90;;;;;;5081712;28;19928;-69
2022/06/06 13:32:02;;;;;;;;;;;23.50;99.90;;;;;;5065105;28;19988;-69
2022/06/06 13:34:31;;;;;;;;;;;23.50;99.90;;;;;;5064270;28;20000;-70
2022/06/06 13:37:12;;;;;;;;;;;23.50;99.90;;;;;;5064447;28;19921;-69
2022/06/06 13:39:52;;;;;;;;;;;23.50;99.90;;;;;;5064258;28;19948;-69
2022/06/06 13:42:20;;;;;;;;;;;23.50;99.90;;;;;;5064550;28;19952;-69
2022/06/06 13:45:10;;;;;;;;;;;23.50;99.90;;;;;;5080859;22;21310;-66
2022/06/06 13:47:53;;;;;;;;;;;23.50;99.90;;;;;;5049290;28;20212;-66
2022/06/06 13:50:23;;;;;;;;;;;23.40;99.90;;;;;;5064734;28;19920;-66
2022/06/06 13:52:56;;;;;;;;;;;23.30;99.90;;;;;;5064601;28;19979;-66
2022/06/06 13:55:27;;;;;;;;;;;23.30;99.90;;;;;;5064079;28;19960;-65
2022/06/06 13:58:00;;;;;;;;;;;23.10;99.90;;;;;;5064205;28;19991;-66
2022/06/06 14:00:31;;;;;;;;;;;23.00;99.90;;;;;;5064701;28;20167;-66
2022/06/06 14:03:12;;;;;;;;;;;22.90;99.90;;;;;;5064213;28;20257;-65
2022/06/06 14:05:49;;;;;;;;;;;22.80;99.90;;;;;;5063813;28;19928;-66
2022/06/06 14:08:16;;;;;;;;;;;22.70;99.90;;;;;;5063874;28;19960;-66
2022/06/06 14:11:01;;;;;;;;;;;22.60;99.90;;;;;;5064270;28;19921;-66
2022/06/06 14:13:40;;;;;;;;;;;22.60;99.90;;;;;;5057255;28;19927;-66
2022/06/06 14:16:16;;;;;;;;;;;22.50;99.90;;;;;;5063568;28;19948;-66
2022/06/06 14:18:45;;;;;;;;;;;22.40;99.90;;;;;;5063800;28;19995;-66
2022/06/06 14:21:21;;;;;;;;;;;22.30;99.90;;;;;;5064103;28;19921;-65
2022/06/06 14:23:48;;;;;;;;;;;22.30;99.90;;;;;;5064121;28;19920;-66
2022/06/06 14:26:15;;;;;;;;;;;22.20;99.90;;;;;;5063555;28;19921;-65
2022/06/06 14:28:43;;;;;;;;;;;22.10;99.90;;;;;;5063934;28;19927;-66
2022/06/06 14:31:20;;;;;;;;;;;22.00;99.90;;;;;;5063649;28;19987;-66
2022/06/06 14:33:53;;;;;;;;;;;22.00;99.90;;;;;;5063419;28;19952;-66
2022/06/06 14:36:21;;;;;;;;;;;21.90;99.90;;;;;;5063662;28;19921;-66
2022/06/06 14:38:53;;;;;;;;;;;21.90;99.90;;;;;;5063093;28;19928;-66
2022/06/06 14:41:22;;;;;;;;;;;21.80;99.90;;;;;;5062898;28;19952;-66
2022/06/06 14:43:51;;;;;;;;;;;21.80;99.90;;;;;;5063792;28;19952;-66
2022/06/06 14:46:18;;;;;;;;;;;21.80;99.90;;;;;;5062771;28;20180;-66
2022/06/06 14:48:46;;;;;;;;;;;21.80;99.90;;;;;;5063726;28;19964;-66
2022/06/06 14:51:15;;;;;;;;;;;21.70;99.90;;;;;;5063209;28;19928;-66
2022/06/06 14:53:49;;;;;;;;;;;21.70;99.90;;;;;;5063254;28;19928;-66
2022/06/06 14:56:25;;;;;;;;;;;21.70;99.90;;;;;;5062803;28;19929;-66
2022/06/06 14:58:53;;;;;;;;;;;21.70;99.90;;;;;;5063709;28;19920;-65
2022/06/06 15:01:22;;;;;;;;;;;21.60;99.90;;;;;;5063271;28;20196;-66
2022/06/06 15:03:50;;;;;;;;;;;21.70;99.90;;;;;;5063305;28;19921;-67
2022/06/06 15:06:20;;;;;;;;;;;21.70;99.90;;;;;;5062790;28;19949;-66
2022/06/06 15:08:50;;;;;;;;;;;21.70;99.90;;;;;;5063025;28;19927;-66
2022/06/06 15:11:18;;;;;;;;;;;21.80;99.90;;;;;;5063296;28;19971;-66
2022/06/06 15:13:47;;;;;;;;;;;21.90;99.90;;;;;;5063324;28;20181;-66